Time;durP1;ratioP1;P1;durP2;ratioP2;P2;SDS_P1;SDS_P2;PMS_P1;PMS_P2;Temp;Humidity;BMP_temperature;BMP_pressure;BME280_temperature;BME280_humidity;BME280_pressure;Samples;Min_cycle;Max_cycle;Signal;HPM_P1;HPM_P2
2022/12/01 05:00:30;;;;;;;14.00;4.20;;;;;;;6.83;65.15;101574.77;107028;1294;23088;-62
2022/12/01 05:02:55;;;;;;;17.40;4.60;;;;;;;6.89;65.12;101569.33;107045;1294;21955;-64
2022/12/01 05:05:21;;;;;;;8.90;4.00;;;;;;;6.94;64.77;101571.20;106920;1294;21953;-62
2022/12/01 05:07:47;;;;;;;15.50;4.50;;;;;;;6.78;65.10;101568.37;106886;1295;21950;-66
2022/12/01 05:10:13;;;;;;;14.30;4.20;;;;;;;6.77;64.95;101566.29;106888;1295;22016;-63
2022/12/01 05:12:40;;;;;;;13.80;5.00;;;;;;;6.73;64.82;101566.18;106991;1295;21945;-63
2022/12/01 05:18:06;;;;;;;21.60;4.70;;;;;;;4.83;70.17;101582.81;105212;1310;547841;-68
2022/12/01 05:23:16;;;;;;;12.30;3.60;;;;;;;6.48;66.33;101581.65;105310;1312;21982;-70
2022/12/01 05:25:42;;;;;;;12.40;3.60;;;;;;;6.51;65.92;101582.25;105315;1312;21964;-73
2022/12/01 05:28:09;;;;;;;15.90;4.80;;;;;;;6.55;65.68;101584.10;105318;1305;22036;-68
2022/12/01 05:30:35;;;;;;;12.00;4.20;;;;;;;6.59;65.62;101585.92;105146;1310;367245;-71
2022/12/01 05:33:02;;;;;;;12.80;4.40;;;;;;;6.60;65.53;101587.35;105608;1309;21968;-71
2022/12/01 05:35:28;;;;;;;13.10;4.30;;;;;;;6.64;65.70;101591.29;105984;1309;22747;-72
2022/12/01 05:37:54;;;;;;;10.80;3.80;;;;;;;6.63;65.61;101595.95;105619;1309;21959;-68
2022/12/01 05:40:20;;;;;;;9.70;3.60;;;;;;;6.71;65.46;101600.85;105645;1301;21981;-69
2022/12/01 05:42:46;;;;;;;11.90;4.10;;;;;;;6.78;65.28;101600.85;105609;1309;23096;-68
2022/12/01 05:45:11;;;;;;;15.80;5.90;;;;;;;6.58;65.96;101600.38;105611;1309;23672;-68
2022/12/01 05:47:37;;;;;;;14.40;4.00;;;;;;;6.46;66.16;101601.66;105614;1307;21962;-71
2022/12/01 05:50:03;;;;;;;10.10;3.80;;;;;;;6.53;66.14;101606.89;105641;1309;23672;-71
2022/12/01 05:52:33;;;;;;;10.80;3.70;;;;;;;6.52;66.10;101607.90;105643;1309;21965;-68
2022/12/01 05:55:04;;;;;;;11.60;3.30;;;;;;;6.53;66.35;101608.83;105088;1309;1002481;-71
2022/12/01 05:57:31;;;;;;;16.00;3.70;;;;;;;6.65;66.24;101611.52;105632;1304;24436;-72
2022/12/01 05:59:57;;;;;;;11.00;3.90;;;;;;;6.69;65.91;101613.36;105656;1309;22405;-70
2022/12/01 06:02:25;;;;;;;13.60;4.30;;;;;;;6.73;65.55;101614.84;105595;1309;21969;-70
2022/12/01 06:04:52;;;;;;;14.60;4.80;;;;;;;6.74;65.47;101615.05;105579;1309;21961;-72
2022/12/01 06:07:18;;;;;;;15.70;4.90;;;;;;;6.78;65.48;101617.08;105632;1309;21968;-72
2022/12/01 06:09:45;;;;;;;7.50;3.50;;;;;;;6.89;65.18;101619.41;104835;1304;1003077;-71
2022/12/01 06:12:11;;;;;;;12.10;3.90;;;;;;;6.94;65.15;101617.25;105605;1309;21969;-69
2022/12/01 06:14:37;;;;;;;10.90;3.50;;;;;;;7.01;65.04;101620.91;105587;1307;21971;-71
2022/12/01 06:17:03;;;;;;;10.00;3.60;;;;;;;7.00;65.18;101620.70;105643;1309;21928;-69
2022/12/01 06:19:30;;;;;;;14.00;4.60;;;;;;;6.97;65.35;101621.52;105789;1309;21973;-69
2022/12/01 06:21:56;;;;;;;12.50;4.00;;;;;;;6.94;65.26;101616.55;105698;1309;21961;-71
2022/12/01 06:24:22;;;;;;;13.00;3.80;;;;;;;6.95;65.34;101612.71;105774;1309;23674;-71
2022/12/01 06:26:48;;;;;;;11.70;3.80;;;;;;;6.98;65.05;101607.59;106582;1304;21966;-69
2022/12/01 06:29:14;;;;;;;14.60;3.70;;;;;;;7.09;65.10;101607.64;105723;1309;21963;-72
2022/12/01 06:31:40;;;;;;;10.50;3.90;;;;;;;7.22;64.89;101612.98;105626;1304;21970;-70
2022/12/01 06:34:06;;;;;;;10.40;4.10;;;;;;;7.23;64.73;101613.54;105614;1309;21973;-69
2022/12/01 06:36:32;;;;;;;13.90;3.80;;;;;;;7.25;64.66;101611.64;105589;1309;22008;-72
2022/12/01 06:38:57;;;;;;;12.50;3.90;;;;;;;7.23;64.68;101610.73;105691;1306;21968;-71
2022/12/01 06:41:23;;;;;;;9.00;3.90;;;;;;;7.20;64.91;101604.03;105689;1307;23804;-72
2022/12/01 06:43:49;;;;;;;11.50;3.60;;;;;;;7.22;64.85;101603.55;105724;1309;21974;-73
2022/12/01 06:46:15;;;;;;;11.80;3.80;;;;;;;7.30;64.62;101603.36;105726;1307;22300;-72
2022/12/01 06:48:41;;;;;;;11.60;3.50;;;;;;;7.35;64.67;101605.38;105807;1309;21944;-72
2022/12/01 06:51:07;;;;;;;7.20;2.90;;;;;;;7.41;64.21;101602.72;105731;1309;23730;-71
2022/12/01 06:53:33;;;;;;;13.60;4.60;;;;;;;7.41;64.02;101597.30;105661;1308;21978;-69
2022/12/01 06:56:00;;;;;;;13.70;4.20;;;;;;;7.39;64.11;101597.97;105606;1307;22798;-70
2022/12/01 06:58:27;;;;;;;12.70;4.20;;;;;;;7.33;64.10;101597.13;106013;1308;21990;-69
2022/12/01 07:00:53;;;;;;;13.30;3.90;;;;;;;7.23;64.13;101599.73;105844;1307;22112;-70
2022/12/01 07:03:18;;;;;;;11.10;3.60;;;;;;;7.18;64.31;101595.96;105735;1307;21963;-70
2022/12/01 07:05:44;;;;;;;10.70;3.70;;;;;;;7.17;64.70;101597.15;105668;1309;21969;-71
2022/12/01 07:08:11;;;;;;;11.10;3.60;;;;;;;7.13;65.12;101602.48;105652;1307;23752;-71
2022/12/01 07:10:36;;;;;;;13.60;4.50;;;;;;;7.14;65.00;101602.48;105655;1309;21970;-70
2022/12/01 07:13:02;;;;;;;14.20;4.90;;;;;;;7.11;64.73;101596.52;105655;1309;22763;-71
2022/12/01 07:15:28;;;;;;;14.70;3.90;;;;;;;7.21;64.56;101602.31;105702;1307;21964;-72
2022/12/01 07:17:54;;;;;;;15.30;4.30;;;;;;;7.42;64.28;101603.95;105065;1308;1002472;-72
2022/12/01 07:20:21;;;;;;;9.40;4.00;;;;;;;7.43;64.12;101608.86;105728;1309;21971;-71
2022/12/01 07:22:48;;;;;;;10.30;3.80;;;;;;;7.40;64.38;101612.64;105770;1309;21983;-71
2022/12/01 07:25:13;;;;;;;9.90;4.90;;;;;;;7.51;64.30;101610.77;105661;1309;21973;-70
2022/12/01 07:27:39;;;;;;;14.20;4.10;;;;;;;7.49;64.18;101605.32;105658;1307;22135;-70
2022/12/01 07:30:06;;;;;;;12.70;4.20;;;;;;;7.39;64.27;101602.66;105618;1304;23696;-70
2022/12/01 07:32:33;;;;;;;10.00;4.00;;;;;;;7.34;64.35;101602.73;105728;1309;23324;-72
2022/12/01 07:34:58;;;;;;;14.60;4.60;;;;;;;7.43;64.37;101599.45;105611;1309;21969;-72
2022/12/01 07:37:24;;;;;;;10.90;4.20;;;;;;;7.50;64.43;101601.67;105672;1308;22246;-69
2022/12/01 07:39:50;;;;;;;13.50;4.20;;;;;;;7.52;64.15;101604.83;105612;1307;21976;-70
2022/12/01 07:42:16;;;;;;;11.70;4.10;;;;;;;7.52;64.17;101607.13;105646;1307;23834;-71
2022/12/01 07:44:41;;;;;;;9.60;3.90;;;;;;;7.52;64.05;101604.33;105685;1308;22802;-72
2022/12/01 07:47:07;;;;;;;9.70;3.70;;;;;;;7.55;63.98;101603.85;105740;1307;23638;-70
2022/12/01 07:49:33;;;;;;;10.30;4.10;;;;;;;7.59;64.03;101606.22;105631;1308;24328;-71
2022/12/01 07:52:01;;;;;;;12.90;3.60;;;;;;;7.61;63.99;101611.48;105654;1307;21972;-68
2022/12/01 07:54:26;;;;;;;14.60;4.10;;;;;;;7.63;64.12;101621.33;105634;1308;21967;-69
2022/12/01 07:56:53;;;;;;;10.30;3.50;;;;;;;7.69;63.90;101627.54;105651;1307;21952;-72
2022/12/01 07:59:19;;;;;;;14.40;3.90;;;;;;;7.74;63.76;101634.28;105784;1308;23641;-72
2022/12/01 08:01:45;;;;;;;10.50;3.90;;;;;;;7.79;63.79;101633.67;105799;1297;23612;-72
2022/12/01 08:04:11;;;;;;;9.40;3.70;;;;;;;7.83;63.67;101632.70;105756;1304;21982;-69
2022/12/01 08:06:38;;;;;;;10.10;3.70;;;;;;;7.84;63.48;101637.98;105791;1307;23170;-72
2022/12/01 08:09:04;;;;;;;12.50;3.70;;;;;;;7.83;63.47;101636.55;105730;1308;21997;-74
2022/12/01 08:11:30;;;;;;;12.40;4.00;;;;;;;7.88;63.62;101633.33;105809;1306;21965;-73
2022/12/01 08:13:56;;;;;;;6.30;3.30;;;;;;;7.93;63.51;101631.66;105730;1308;22234;-72
2022/12/01 08:16:23;;;;;;;7.60;3.20;;;;;;;7.96;63.57;101629.80;105671;1295;21965;-70
2022/12/01 08:18:49;;;;;;;10.00;3.40;;;;;;;8.00;63.41;101629.52;105711;1298;21968;-72
2022/12/01 08:21:16;;;;;;;8.30;3.60;;;;;;;8.01;63.20;101632.52;105598;1309;23728;-72
2022/12/01 08:23:42;;;;;;;10.20;4.20;;;;;;;7.98;63.12;101630.02;105685;1299;21959;-70
2022/12/01 08:26:13;;;;;;;10.80;3.50;;;;;;;7.99;62.99;101628.63;105669;1302;21976;-72
2022/12/01 08:28:39;;;;;;;9.70;3.30;;;;;;;8.04;63.04;101630.30;105688;1304;21978;-71
2022/12/01 08:31:25;;;;;;;8.00;3.40;;;;;;;8.11;63.01;101631.13;105626;1308;21963;-70
2022/12/01 08:33:51;;;;;;;8.10;3.50;;;;;;;8.13;63.08;101627.66;105646;1308;21977;-70
2022/12/01 08:36:18;;;;;;;10.80;4.20;;;;;;;8.16;63.27;101624.39;105732;1307;21968;-71
2022/12/01 08:38:44;;;;;;;9.30;3.20;;;;;;;8.21;63.19;101621.52;105636;1304;21969;-71
2022/12/01 08:41:10;;;;;;;10.60;3.80;;;;;;;8.25;63.17;101610.57;105664;1309;21978;-72
2022/12/01 08:43:41;;;;;;;10.20;4.20;;;;;;;8.31;63.23;101609.09;105660;1308;23649;-70
2022/12/01 08:46:07;;;;;;;8.70;4.30;;;;;;;8.24;63.40;101608.27;105656;1308;22137;-70
2022/12/01 08:48:33;;;;;;;9.60;4.10;;;;;;;8.24;63.55;101605.48;105619;1307;21981;-70
2022/12/01 08:51:10;;;;;;;8.20;4.60;;;;;;;8.31;63.94;101604.70;105678;1309;21977;-72
2022/12/01 08:53:37;;;;;;;13.30;4.70;;;;;;;8.53;63.53;101607.37;105828;1307;21978;-71
2022/12/01 08:56:05;;;;;;;9.00;4.00;;;;;;;8.59;63.58;101605.73;105744;1307;21966;-72
2022/12/01 08:58:31;;;;;;;13.50;4.30;;;;;;;8.67;63.66;101596.56;105685;1309;22011;-72
2022/12/01 09:01:01;;;;;;;9.40;3.90;;;;;;;8.79;63.36;101595.00;105575;1309;21991;-71
2022/12/01 09:03:27;;;;;;;17.00;4.80;;;;;;;8.86;63.16;101590.38;105626;1309;21973;-73
2022/12/01 09:05:54;;;;;;;14.80;4.50;;;;;;;8.91;63.18;101595.16;105632;1309;22767;-72
2022/12/01 09:08:32;;;;;;;13.10;4.20;;;;;;;8.97;62.79;101594.90;105611;1309;21966;-72
2022/12/01 09:10:59;;;;;;;10.00;4.00;;;;;;;8.99;62.61;101594.05;105687;1308;21958;-71
2022/12/01 09:13:26;;;;;;;11.50;4.30;;;;;;;9.01;62.36;101590.92;105662;1307;21965;-72
2022/12/01 09:16:04;;;;;;;10.70;4.20;;;;;;;9.01;62.24;101586.20;105805;1309;23708;-72
2022/12/01 09:18:30;;;;;;;17.90;4.50;;;;;;;8.93;62.21;101590.81;105630;1309;21960;-73
2022/12/01 09:20:56;;;;;;;11.70;4.10;;;;;;;8.91;62.20;101594.82;105650;1309;21961;-72
2022/12/01 09:23:22;;;;;;;11.20;3.70;;;;;;;8.91;62.18;101595.34;105707;1307;22857;-71
2022/12/01 09:25:51;;;;;;;10.80;4.60;;;;;;;8.91;62.25;101590.96;105730;1304;21994;-72
2022/12/01 09:28:17;;;;;;;16.50;5.90;;;;;;;8.91;62.08;101592.37;105654;1300;21971;-71
2022/12/01 09:30:44;;;;;;;8.10;3.30;;;;;;;8.89;61.99;101591.80;105983;1308;22097;-72
2022/12/01 09:33:10;;;;;;;7.00;3.50;;;;;;;8.86;62.03;101590.90;105784;1307;21970;-70
2022/12/01 09:35:36;;;;;;;8.60;3.60;;;;;;;8.86;62.11;101589.65;105841;1300;21972;-71
2022/12/01 09:38:03;;;;;;;10.50;3.60;;;;;;;8.82;62.04;101589.60;105643;1305;22009;-71
2022/12/01 09:40:35;;;;;;;10.30;3.60;;;;;;;8.76;62.21;101586.73;105746;1308;21970;-71
2022/12/01 09:43:03;;;;;;;10.00;4.10;;;;;;;8.74;62.53;101580.75;105662;1309;23035;-71
2022/12/01 09:45:31;;;;;;;9.20;3.60;;;;;;;8.81;62.49;101576.48;105704;1308;21975;-71
2022/12/01 09:47:59;;;;;;;6.00;3.20;;;;;;;8.84;62.26;101572.66;105641;1307;22134;-72
2022/12/01 09:50:26;;;;;;;11.20;4.40;;;;;;;8.83;62.11;101564.95;105692;1307;23719;-71
2022/12/01 09:53:06;;;;;;;8.00;3.40;;;;;;;8.83;62.13;101560.75;105626;1309;21957;-71
2022/12/01 09:55:32;;;;;;;;;;;;;;;8.82;62.22;101558.64;105798;1300;23617;-71
2022/12/01 09:57:59;;;;;;;11.10;3.40;;;;;;;8.84;61.92;101562.14;105670;1309;21957;-71
2022/12/01 10:00:28;;;;;;;8.80;3.50;;;;;;;8.86;62.06;101563.05;105665;1309;21970;-71
2022/12/01 10:03:15;;;;;;;6.30;3.40;;;;;;;8.89;62.06;101552.25;105600;1307;21987;-71
2022/12/01 10:05:54;;;;;;;6.30;2.80;;;;;;;8.90;62.01;101549.46;105669;1307;22008;-72
2022/12/01 10:08:22;;;;;;;9.50;3.90;;;;;;;8.93;62.10;101547.94;105660;1309;23623;-71
2022/12/01 10:10:49;;;;;;;8.90;3.50;;;;;;;8.86;62.24;101548.71;105661;1308;23668;-71
2022/12/01 10:13:18;;;;;;;11.20;4.00;;;;;;;8.94;62.05;101546.54;105802;1309;23157;-70
2022/12/01 10:16:08;;;;;;;8.30;4.00;;;;;;;8.98;61.95;101547.98;105767;1309;23784;-70
2022/12/01 10:18:41;;;;;;;7.10;3.60;;;;;;;9.02;61.79;101545.77;105699;1303;21965;-71
2022/12/01 10:21:31;;;;;;;7.10;2.70;;;;;;;9.04;61.87;101543.00;105747;1307;21964;-72
2022/12/01 10:24:21;;;;;;;9.30;3.10;;;;;;;9.07;61.95;101543.20;105721;1303;21981;-72
2022/12/01 10:27:08;;;;;;;7.10;3.60;;;;;;;8.93;62.30;101542.67;105764;1308;21977;-71
2022/12/01 10:29:48;;;;;;;6.20;2.50;;;;;;;8.88;62.50;101545.58;105629;1308;22008;-71
2022/12/01 10:32:17;;;;;;;9.30;2.90;;;;;;;8.83;62.39;101550.42;105761;1307;21971;-72
2022/12/01 10:34:45;;;;;;;5.50;2.70;;;;;;;8.79;62.48;101544.42;105651;1309;21969;-72
2022/12/01 10:37:22;;;;;;;9.60;3.10;;;;;;;8.76;62.55;101542.45;105611;1309;21969;-72
2022/12/01 10:39:50;;;;;;;5.60;2.60;;;;;;;8.79;62.67;101539.52;105616;1293;22231;-71
2022/12/01 10:42:36;;;;;;;6.50;2.30;;;;;;;8.73;62.84;101538.04;105727;1301;21970;-71
2022/12/01 10:45:12;;;;;;;7.10;2.60;;;;;;;8.68;62.93;101539.89;105783;1309;21967;-71
2022/12/01 10:47:40;;;;;;;7.00;3.00;;;;;;;8.65;62.78;101539.15;105719;1309;21980;-71
2022/12/01 10:50:06;;;;;;;12.10;3.30;;;;;;;8.71;62.87;101535.37;105750;1309;23720;-70
2022/12/01 10:52:38;;;;;;;6.90;2.70;;;;;;;8.80;62.45;101531.66;105862;1304;22063;-71
2022/12/01 10:55:42;;;;;;;6.40;2.60;;;;;;;8.76;62.33;101528.98;105970;1307;21967;-71
2022/12/01 10:58:14;;;;;;;6.20;2.30;;;;;;;8.69;62.56;101530.10;104961;1308;1002342;-71
2022/12/01 11:00:41;;;;;;;6.20;2.40;;;;;;;8.69;62.49;101530.09;105615;1307;24455;-71
2022/12/01 11:03:18;;;;;;;7.10;3.00;;;;;;;8.70;62.55;101529.94;105667;1308;21977;-72
2022/12/01 11:05:44;;;;;;;6.20;2.40;;;;;;;8.70;62.43;101529.60;105667;1307;22100;-73
2022/12/01 11:08:42;;;;;;;6.20;2.50;;;;;;;8.68;62.26;101529.05;105647;1308;21993;-75
2022/12/01 11:11:38;;;;;;;6.00;2.10;;;;;;;8.71;62.00;101526.64;105809;1307;24496;-71
2022/12/01 11:14:18;;;;;;;5.80;2.20;;;;;;;8.67;62.11;101522.91;105793;1299;21973;-72
2022/12/01 11:16:47;;;;;;;6.30;2.90;;;;;;;8.67;62.17;101524.63;105693;1309;21983;-71
2022/12/01 11:19:33;;;;;;;6.30;2.70;;;;;;;8.66;62.03;101527.08;105749;1308;21955;-73
2022/12/01 11:22:18;;;;;;;9.10;2.60;;;;;;;8.65;62.06;101526.02;105879;1297;22375;-73
2022/12/01 11:24:54;;;;;;;6.90;2.30;;;;;;;8.60;62.36;101527.02;105686;1307;21971;-71
2022/12/01 11:27:25;;;;;;;6.50;2.60;;;;;;;8.64;62.30;101530.02;105635;1309;21974;-73
2022/12/01 11:29:53;;;;;;;7.20;2.70;;;;;;;8.65;62.09;101523.91;105690;1301;22016;-70
2022/12/01 11:32:19;;;;;;;7.20;2.80;;;;;;;8.62;62.03;101518.28;105695;1307;21959;-70
2022/12/01 11:34:49;;;;;;;6.40;2.60;;;;;;;8.60;61.72;101516.34;105731;1307;23654;-72
2022/12/01 11:37:17;;;;;;;6.10;2.50;;;;;;;8.58;61.76;101521.91;105769;1307;21964;-70
2022/12/01 11:39:43;;;;;;;4.80;1.90;;;;;;;8.58;61.80;101523.66;105680;1309;21972;-71
2022/12/01 11:42:13;;;;;;;6.30;2.30;;;;;;;8.62;61.72;101520.90;105700;1304;21983;-72
2022/12/01 11:44:45;;;;;;;6.60;2.70;;;;;;;8.61;61.83;101524.39;105773;1305;22769;-73
2022/12/01 11:47:25;;;;;;;8.40;3.40;;;;;;;8.54;61.92;101530.94;105679;1309;21974;-70
2022/12/01 11:50:00;;;;;;;8.80;2.20;;;;;;;8.56;61.90;101532.38;105740;1307;21936;-70
2022/12/01 11:52:31;;;;;;;7.80;2.10;;;;;;;8.54;61.95;101533.23;105971;1304;23613;-72
2022/12/01 11:55:00;;;;;;;11.90;3.20;;;;;;;8.53;61.71;101535.65;105847;1308;22918;-70
2022/12/01 11:57:27;;;;;;;10.20;2.90;;;;;;;8.44;61.86;101539.34;105585;1309;22021;-71
2022/12/01 11:59:52;;;;;;;8.60;2.50;;;;;;;8.40;61.97;101538.92;105839;1308;21968;-71
2022/12/01 12:02:39;;;;;;;9.60;2.30;;;;;;;8.37;62.03;101535.54;105877;1309;21973;-70
2022/12/01 12:05:32;;;;;;;9.20;2.50;;;;;;;8.41;61.98;101536.66;105712;1307;21977;-72
2022/12/01 12:08:12;;;;;;;6.70;2.40;;;;;;;8.45;61.69;101535.51;105694;1308;23651;-72
2022/12/01 12:10:53;;;;;;;6.60;2.40;;;;;;;8.49;61.37;101532.42;105666;1307;22096;-71
2022/12/01 12:13:41;;;;;;;7.90;1.90;;;;;;;8.47;61.53;101530.30;105829;1309;21960;-71
2022/12/01 12:16:21;;;;;;;7.80;2.50;;;;;;;8.46;61.36;101526.07;105840;1300;21959;-72
2022/12/01 12:19:12;;;;;;;9.80;2.70;;;;;;;8.43;61.34;101520.08;105644;1309;21968;-74
2022/12/01 12:22:06;;;;;;;7.10;2.60;;;;;;;8.39;61.42;101515.46;105860;1298;23722;-73
2022/12/01 12:24:40;;;;;;;7.90;2.10;;;;;;;8.41;61.33;101510.25;105731;1308;21997;-72
2022/12/01 12:27:15;;;;;;;7.20;3.10;;;;;;;8.46;61.31;101513.82;105712;1307;21975;-71
2022/12/01 12:30:02;;;;;;;7.00;3.30;;;;;;;8.46;61.24;101512.08;105705;1306;21968;-71
2022/12/01 12:32:50;;;;;;;7.10;2.60;;;;;;;8.46;61.14;101508.92;105804;1307;21984;-70
2022/12/01 12:35:28;;;;;;;6.10;2.90;;;;;;;8.43;60.79;101504.51;105928;1307;21979;-72
2022/12/01 12:38:13;;;;;;;9.10;2.50;;;;;;;8.36;60.97;101499.87;105725;1307;23184;-70
2022/12/01 12:41:20;;;;;;;8.80;2.70;;;;;;;8.31;60.88;101498.04;105622;1308;22432;-71
2022/12/01 12:43:55;;;;;;;6.40;3.20;;;;;;;8.27;60.71;101500.43;105594;1306;22033;-71
2022/12/01 12:46:36;;;;;;;5.40;2.80;;;;;;;8.22;60.94;101505.77;105705;1304;23245;-72
2022/12/01 12:49:11;;;;;;;8.10;2.30;;;;;;;8.24;61.04;101509.11;105710;1306;21982;-72
2022/12/01 12:52:01;;;;;;;17.20;7.40;;;;;;;8.20;61.01;101510.28;105759;1309;21967;-70
2022/12/01 12:54:30;;;;;;;54.80;24.40;;;;;;;8.16;61.33;101515.65;105789;1308;22427;-71
2022/12/01 12:57:00;;;;;;;39.80;15.10;;;;;;;8.21;61.43;101513.10;105753;1307;21954;-71
2022/12/01 12:59:33;;;;;;;29.40;13.80;;;;;;;8.35;61.50;101508.59;105773;1308;21954;-72
2022/12/01 13:02:18;;;;;;;24.70;8.80;;;;;;;8.43;61.71;101504.86;105657;1307;21973;-71
2022/12/01 13:04:48;;;;;;;6.50;3.50;;;;;;;8.53;61.98;101507.30;105638;1309;21990;-70
2022/12/01 13:07:35;;;;;;;13.20;3.10;;;;;;;8.61;61.93;101509.02;105749;1309;21960;-71
2022/12/01 13:10:15;;;;;;;56.90;34.30;;;;;;;8.69;61.89;101503.69;105792;1308;24408;-72
2022/12/01 13:12:48;;;;;;;12.40;6.80;;;;;;;8.74;61.50;101506.55;105647;1307;23648;-72
2022/12/01 13:15:18;;;;;;;9.30;3.50;;;;;;;8.74;61.62;101507.43;105643;1294;22004;-72
2022/12/01 13:17:56;;;;;;;9.60;2.90;;;;;;;8.78;61.66;101508.70;105638;1304;21970;-73
2022/12/01 13:20:26;;;;;;;13.60;3.40;;;;;;;8.81;61.62;101500.35;105664;1307;21983;-73
2022/12/01 13:22:52;;;;;;;13.70;3.60;;;;;;;8.93;61.61;101498.04;105942;1297;23785;-72
2022/12/01 13:25:27;;;;;;;7.80;3.20;;;;;;;9.01;61.33;101500.77;105682;1308;21975;-72
2022/12/01 13:27:54;;;;;;;7.00;3.30;;;;;;;9.06;61.10;101506.42;105648;1307;23628;-73
2022/12/01 13:30:22;;;;;;;10.80;3.90;;;;;;;9.07;60.85;101501.54;105532;1309;21967;-72
2022/12/01 13:32:56;;;;;;;14.80;3.60;;;;;;;9.06;60.70;101498.37;105654;1308;23123;-72
2022/12/01 13:35:31;;;;;;;7.80;2.50;;;;;;;9.04;60.64;101500.80;105690;1307;21962;-71
2022/12/01 13:38:23;;;;;;;8.60;4.50;;;;;;;8.94;60.51;101504.35;105838;1307;22004;-71
2022/12/01 13:41:12;;;;;;;17.30;4.30;;;;;;;8.79;60.30;101506.96;105616;1304;21953;-72
2022/12/01 13:43:48;;;;;;;21.90;8.40;;;;;;;8.61;60.35;101504.45;105660;1306;21973;-71
2022/12/01 13:46:21;;;;;;;14.80;6.80;;;;;;;8.50;60.10;101499.89;105605;1301;21975;-72
2022/12/01 13:48:47;;;;;;;12.00;5.00;;;;;;;8.36;60.28;101500.22;105664;1307;21973;-71
2022/12/01 13:51:13;;;;;;;8.70;3.60;;;;;;;8.29;60.43;101501.34;105875;1307;23729;-71
2022/12/01 13:53:54;;;;;;;9.10;3.40;;;;;;;8.26;60.38;101500.05;105807;1307;21970;-71
2022/12/01 13:56:20;;;;;;;8.50;3.50;;;;;;;8.14;60.31;101504.25;105679;1307;21958;-72
2022/12/01 13:58:50;;;;;;;8.70;2.50;;;;;;;8.03;60.50;101503.91;105650;1303;21966;-71
2022/12/01 14:01:19;;;;;;;12.10;3.00;;;;;;;7.96;60.51;101508.15;105709;1307;22005;-71
2022/12/01 14:03:54;;;;;;;5.60;3.00;;;;;;;7.90;60.50;101509.11;105631;1306;22011;-71
2022/12/01 14:06:26;;;;;;;8.90;3.20;;;;;;;7.96;60.14;101506.75;105694;1301;21961;-71
2022/12/01 14:09:01;;;;;;;7.90;3.20;;;;;;;7.93;60.17;101506.70;105621;1308;22000;-71
2022/12/01 14:11:27;;;;;;;6.20;2.70;;;;;;;7.89;60.02;101507.34;105660;1307;21968;-71
2022/12/01 14:13:57;;;;;;;6.90;3.30;;;;;;;7.85;59.97;101506.58;105603;1308;22036;-72
2022/12/01 14:16:23;;;;;;;10.10;3.10;;;;;;;7.82;59.90;101503.21;105660;1309;23720;-71
2022/12/01 14:18:50;;;;;;;5.70;3.00;;;;;;;7.79;59.93;101505.92;105684;1308;21986;-71
2022/12/01 14:21:15;;;;;;;7.90;3.30;;;;;;;7.78;60.13;101508.54;105673;1308;21963;-71
2022/12/01 14:24:03;;;;;;;10.60;3.50;;;;;;;7.78;60.29;101508.02;105601;1310;21965;-70
2022/12/01 14:26:30;;;;;;;7.40;4.10;;;;;;;7.78;60.12;101511.17;105664;1308;22228;-71
2022/12/01 14:28:59;;;;;;;6.40;2.50;;;;;;;7.80;60.06;101517.49;105824;1309;21942;-71
2022/12/01 14:31:48;;;;;;;11.50;3.40;;;;;;;7.78;60.00;101516.58;105966;1309;21985;-70
2022/12/01 14:34:23;;;;;;;8.20;3.50;;;;;;;7.74;60.14;101514.42;105598;1308;22175;-71
2022/12/01 14:37:01;;;;;;;6.80;4.00;;;;;;;7.74;60.09;101513.73;105574;1310;21963;-71
2022/12/01 14:39:35;;;;;;;11.10;3.80;;;;;;;7.76;60.08;101509.91;105649;1308;21974;-71
2022/12/01 14:42:10;;;;;;;6.20;3.20;;;;;;;7.76;59.84;101511.50;105620;1309;21968;-71
2022/12/01 14:44:52;;;;;;;12.40;3.30;;;;;;;7.77;60.28;101515.67;105647;1304;21981;-72
2022/12/01 14:47:22;;;;;;;6.50;3.20;;;;;;;7.76;59.87;101516.37;105771;1309;21978;-71
2022/12/01 14:49:50;;;;;;;12.70;3.70;;;;;;;7.75;59.84;101518.63;105627;1309;21974;-70
2022/12/01 14:52:30;;;;;;;4.80;2.50;;;;;;;7.75;60.02;101522.48;105737;1308;21966;-73
2022/12/01 14:54:58;;;;;;;11.70;3.60;;;;;;;7.77;59.95;101518.84;105750;1310;23612;-70
2022/12/01 14:57:36;;;;;;;5.90;3.40;;;;;;;7.77;59.83;101517.61;102786;1309;1003674;-70
2022/12/01 15:00:07;;;;;;;9.00;3.20;;;;;;;7.77;60.03;101518.67;105699;1309;21957;-69
2022/12/01 15:02:38;;;;;;;6.90;3.60;;;;;;;7.75;59.94;101518.98;105683;1310;21961;-70
2022/12/01 15:05:11;;;;;;;6.20;3.40;;;;;;;7.76;59.98;101515.84;105606;1310;22085;-71
2022/12/01 15:07:38;;;;;;;11.80;3.70;;;;;;;7.75;59.93;101515.83;105604;1310;21964;-70
2022/12/01 15:10:20;;;;;;;7.80;3.00;;;;;;;7.74;59.84;101519.66;105739;1303;23077;-70
2022/12/01 15:12:47;;;;;;;6.70;3.50;;;;;;;7.71;59.81;101520.31;105724;1310;23100;-70
2022/12/01 15:15:23;;;;;;;5.80;3.10;;;;;;;7.67;60.04;101521.64;105714;1302;21969;-70
2022/12/01 15:17:50;;;;;;;7.30;3.70;;;;;;;7.70;59.98;101525.71;105717;1305;22884;-70
2022/12/01 15:20:32;;;;;;;6.90;4.00;;;;;;;7.71;59.99;101526.42;105774;1308;21973;-70
2022/12/01 15:22:58;;;;;;;10.70;6.10;;;;;;;7.68;60.11;101527.08;105726;1307;21960;-70
2022/12/01 15:25:28;;;;;;;8.70;4.50;;;;;;;7.66;60.10;101523.19;105671;1308;21970;-70
2022/12/01 15:28:02;;;;;;;9.10;3.70;;;;;;;7.58;59.87;101520.78;105748;1308;22446;-70
2022/12/01 15:30:29;;;;;;;6.50;3.10;;;;;;;7.53;59.92;101519.80;105678;1305;21968;-70
2022/12/01 15:32:54;;;;;;;6.10;3.40;;;;;;;7.54;60.26;101522.98;105737;1309;22764;-70
2022/12/01 15:35:21;;;;;;;8.70;3.90;;;;;;;7.58;60.22;101522.00;105689;1307;21997;-69
2022/12/01 15:37:47;;;;;;;8.30;4.20;;;;;;;7.58;60.24;101522.86;105673;1309;21976;-72
2022/12/01 15:40:17;;;;;;;11.50;5.80;;;;;;;7.53;60.40;101525.05;105618;1309;23133;-71
2022/12/01 15:42:43;;;;;;;9.80;5.40;;;;;;;7.50;60.17;101530.06;104972;1307;1003116;-71
2022/12/01 15:45:20;;;;;;;11.10;4.80;;;;;;;7.51;60.05;101525.55;105666;1309;23794;-70
2022/12/01 15:47:50;;;;;;;9.40;4.40;;;;;;;7.53;60.16;101519.64;105722;1308;21981;-72
2022/12/01 15:50:30;;;;;;;;;;;;;;;7.53;60.39;101524.88;105693;1307;21945;-73
2022/12/01 15:52:56;;;;;;;37.60;23.90;;;;;;;7.63;61.05;101525.93;105655;1308;21988;-71
2022/12/01 15:55:31;;;;;;;22.20;10.70;;;;;;;7.75;60.66;101528.07;105686;1307;21965;-70
2022/12/01 15:57:57;;;;;;;21.80;10.90;;;;;;;7.76;60.22;101525.45;105795;1309;21977;-70
2022/12/01 16:00:23;;;;;;;14.80;8.40;;;;;;;7.72;60.29;101524.35;105663;1309;25054;-70
2022/12/01 16:02:52;;;;;;;12.80;5.90;;;;;;;7.67;60.13;101521.28;105797;1309;23150;-72
2022/12/01 16:05:31;;;;;;;8.50;4.50;;;;;;;7.64;60.02;101516.36;105747;1308;22050;-73
2022/12/01 16:08:18;;;;;;;12.60;5.30;;;;;;;7.62;60.17;101519.45;105624;1309;21982;-71
2022/12/01 16:10:43;;;;;;;15.30;6.40;;;;;;;7.64;59.97;101517.91;105695;1308;21962;-70
2022/12/01 16:13:34;;;;;;;1064.90;689.80;;;;;;;7.66;59.90;101514.98;105645;1309;22442;-71
2022/12/01 16:16:00;;;;;;;291.00;162.20;;;;;;;7.88;60.79;101517.80;105589;1304;21958;-71
2022/12/01 16:18:31;;;;;;;95.80;52.60;;;;;;;8.14;60.60;101518.41;105741;1309;21964;-72
2022/12/01 16:21:03;;;;;;;79.60;44.90;;;;;;;8.18;60.05;101506.23;105725;1307;21977;-71
2022/12/01 16:23:29;;;;;;;32.50;18.10;;;;;;;8.08;59.73;101502.23;105809;1308;22767;-70
2022/12/01 16:25:55;;;;;;;16.30;10.00;;;;;;;8.00;59.61;101502.28;105855;1308;23756;-72
2022/12/01 16:28:23;;;;;;;16.50;7.90;;;;;;;7.96;59.37;101502.04;105866;1307;24475;-71
2022/12/01 16:30:49;;;;;;;15.70;8.70;;;;;;;7.88;59.14;101498.94;105709;1309;24128;-70
2022/12/01 16:33:23;;;;;;;17.50;10.00;;;;;;;7.80;59.25;101495.15;105711;1309;21965;-72
2022/12/01 16:35:49;;;;;;;22.70;12.70;;;;;;;7.85;59.21;101497.33;105794;1306;23195;-70
2022/12/01 16:38:19;;;;;;;458.70;313.30;;;;;;;7.93;59.03;101497.10;105634;1305;22119;-70
2022/12/01 16:40:46;;;;;;;100.70;61.10;;;;;;;8.08;59.99;101494.19;105727;1298;21971;-71
2022/12/01 16:43:16;;;;;;;37.20;21.10;;;;;;;8.28;60.03;101490.98;105688;1297;22010;-70